sensor_id;sensor_type;location;lat;lon;timestamp;pressure;altitude;pressure_sealevel;temperature;humidity
58761;BME280;44529;47.464;19.014;2022-12-10T00:01:29;98649.75;;;5.80;100.00
58761;BME280;44529;47.464;19.014;2022-12-10T00:04:32;98634.72;;;5.79;100.00
58761;BME280;44529;47.464;19.014;2022-12-10T00:07:34;98641.03;;;5.83;100.00
58761;BME280;44529;47.464;19.014;2022-12-10T00:10:40;98639.59;;;5.85;100.00
58761;BME280;44529;47.464;19.014;2022-12-10T00:13:42;98640.53;;;5.89;100.00
58761;BME280;44529;47.464;19.014;2022-12-10T00:16:45;98637.56;;;5.91;100.00
58761;BME280;44529;47.464;19.014;2022-12-10T00:19:47;98645.44;;;5.96;100.00
58761;BME280;44529;47.464;19.014;2022-12-10T00:22:50;98662.00;;;5.89;100.00
58761;BME280;44529;47.464;19.014;2022-12-10T00:25:52;98669.88;;;5.86;100.00
58761;BME280;44529;47.464;19.014;2022-12-10T00:28:56;98664.56;;;5.94;100.00
58761;BME280;44529;47.464;19.014;2022-12-10T00:31:58;98670.38;;;5.96;100.00
58761;BME280;44529;47.464;19.014;2022-12-10T00:35:00;98662.00;;;5.98;100.00
58761;BME280;44529;47.464;19.014;2022-12-10T00:38:03;98664.97;;;6.05;100.00
58761;BME280;44529;47.464;19.014;2022-12-10T00:41:06;98663.56;;;6.08;100.00
58761;BME280;44529;47.464;19.014;2022-12-10T00:44:08;98677.63;;;6.05;100.00
58761;BME280;44529;47.464;19.014;2022-12-10T00:47:12;98686.44;;;6.05;100.00
58761;BME280;44529;47.464;19.014;2022-12-10T00:50:15;98680.47;;;6.08;100.00
58761;BME280;44529;47.464;19.014;2022-12-10T00:53:17;98680.16;;;6.01;100.00
58761;BME280;44529;47.464;19.014;2022-12-10T00:56:23;98680.16;;;6.01;100.00
58761;BME280;44529;47.464;19.014;2022-12-10T00:59:26;98686.00;;;6.03;100.00
58761;BME280;44529;47.464;19.014;2022-12-10T01:02:28;98691.69;;;6.02;100.00
58761;BME280;44529;47.464;19.014;2022-12-10T01:05:30;98690.87;;;6.10;100.00
58761;BME280;44529;47.464;19.014;2022-12-10T01:08:33;98698.13;;;6.09;100.00
58761;BME280;44529;47.464;19.014;2022-12-10T01:11:38;98699.06;;;6.05;100.00
58761;BME280;44529;47.464;19.014;2022-12-10T01:14:41;98708.06;;;6.09;100.00
58761;BME280;44529;47.464;19.014;2022-12-10T01:17:43;98703.81;;;6.08;100.00
58761;BME280;44529;47.464;19.014;2022-12-10T01:20:47;98698.59;;;6.11;100.00
58761;BME280;44529;47.464;19.014;2022-12-10T01:23:51;98708.38;;;6.16;100.00
58761;BME280;44529;47.464;19.014;2022-12-10T01:26:54;98711.38;;;6.14;100.00
58761;BME280;44529;47.464;19.014;2022-12-10T01:30:00;98711.09;;;6.07;100.00
58761;BME280;44529;47.464;19.014;2022-12-10T01:33:03;98697.19;;;6.14;100.00
58761;BME280;44529;47.464;19.014;2022-12-10T01:36:15;98698.28;;;6.13;100.00
58761;BME280;44529;47.464;19.014;2022-12-10T01:39:19;98718.00;;;6.17;100.00
58761;BME280;44529;47.464;19.014;2022-12-10T01:42:21;98695.28;;;6.14;100.00
58761;BME280;44529;47.464;19.014;2022-12-10T01:45:24;98700.66;;;6.14;100.00
58761;BME280;44529;47.464;19.014;2022-12-10T01:48:26;98700.97;;;6.13;100.00
58761;BME280;44529;47.464;19.014;2022-12-10T01:51:31;98698.13;;;6.09;100.00
58761;BME280;44529;47.464;19.014;2022-12-10T01:54:37;98702.88;;;6.12;100.00
58761;BME280;44529;47.464;19.014;2022-12-10T01:57:42;98712.13;;;6.23;100.00
58761;BME280;44529;47.464;19.014;2022-12-10T02:04:32;98724.62;;;6.19;100.00
58761;BME280;44529;47.464;19.014;2022-12-10T02:07:55;98730.31;;;6.27;100.00
58761;BME280;44529;47.464;19.014;2022-12-10T02:11:22;98729.03;;;6.24;100.00
58761;BME280;44529;47.464;19.014;2022-12-10T02:18:06;98734.88;;;6.26;100.00
58761;BME280;44529;47.464;19.014;2022-12-10T02:21:15;98731.41;;;6.26;100.00
58761;BME280;44529;47.464;19.014;2022-12-10T02:24:24;98745.63;;;6.26;100.00
58761;BME280;44529;47.464;19.014;2022-12-10T02:30:47;98737.69;;;6.38;100.00
58761;BME280;44529;47.464;19.014;2022-12-10T02:33:55;98738.31;;;6.35;100.00
58761;BME280;44529;47.464;19.014;2022-12-10T02:37:04;98748.28;;;6.35;100.00
58761;BME280;44529;47.464;19.014;2022-12-10T02:40:12;98741.63;;;6.41;100.00
58761;BME280;44529;47.464;19.014;2022-12-10T02:43:19;98734.69;;;6.40;100.00
58761;BME280;44529;47.464;19.014;2022-12-10T02:46:26;98732.28;;;6.47;100.00
58761;BME280;44529;47.464;19.014;2022-12-10T02:49:34;98726.13;;;6.46;100.00
58761;BME280;44529;47.464;19.014;2022-12-10T02:52:37;98718.88;;;6.47;100.00
58761;BME280;44529;47.464;19.014;2022-12-10T03:05:32;98740.12;;;6.61;100.00
58761;BME280;44529;47.464;19.014;2022-12-10T03:08:47;98743.44;;;6.66;100.00
58761;BME280;44529;47.464;19.014;2022-12-10T03:11:58;98730.28;;;6.73;100.00
58761;BME280;44529;47.464;19.014;2022-12-10T03:15:06;98736.44;;;6.74;100.00
58761;BME280;44529;47.464;19.014;2022-12-10T03:18:11;98746.72;;;6.72;100.00
58761;BME280;44529;47.464;19.014;2022-12-10T03:21:17;98755.91;;;6.62;100.00
58761;BME280;44529;47.464;19.014;2022-12-10T03:24:20;98763.84;;;6.59;100.00
58761;BME280;44529;47.464;19.014;2022-12-10T03:27:24;98776.94;;;6.60;100.00
58761;BME280;44529;47.464;19.014;2022-12-10T03:30:29;98769.84;;;6.64;100.00
58761;BME280;44529;47.464;19.014;2022-12-10T03:33:34;98763.06;;;6.58;100.00
58761;BME280;44529;47.464;19.014;2022-12-10T03:36:38;98761.94;;;6.59;100.00
58761;BME280;44529;47.464;19.014;2022-12-10T03:39:42;98756.13;;;6.48;100.00
58761;BME280;44529;47.464;19.014;2022-12-10T03:42:44;98765.75;;;6.49;100.00
58761;BME280;44529;47.464;19.014;2022-12-10T03:45:46;98766.53;;;6.50;100.00
58761;BME280;44529;47.464;19.014;2022-12-10T03:48:49;98777.94;;;6.47;100.00
58761;BME280;44529;47.464;19.014;2022-12-10T03:51:52;98783.75;;;6.49;100.00
58761;BME280;44529;47.464;19.014;2022-12-10T03:54:54;98791.97;;;6.53;100.00
58761;BME280;44529;47.464;19.014;2022-12-10T03:57:57;98786.44;;;6.49;100.00
58761;BME280;44529;47.464;19.014;2022-12-10T04:00:59;98791.84;;;6.40;100.00
58761;BME280;44529;47.464;19.014;2022-12-10T04:04:03;98786.81;;;6.39;100.00
58761;BME280;44529;47.464;19.014;2022-12-10T04:07:05;98789.28;;;6.44;100.00
58761;BME280;44529;47.464;19.014;2022-12-10T04:10:08;98789.78;;;6.37;100.00
58761;BME280;44529;47.464;19.014;2022-12-10T04:13:11;98790.91;;;6.28;100.00
58761;BME280;44529;47.464;19.014;2022-12-10T04:16:33;98793.59;;;6.28;100.00
58761;BME280;44529;47.464;19.014;2022-12-10T04:19:36;98789.53;;;6.13;100.00
58761;BME280;44529;47.464;19.014;2022-12-10T04:22:38;98797.88;;;6.03;100.00
58761;BME280;44529;47.464;19.014;2022-12-10T04:25:59;98818.25;;;5.95;100.00
58761;BME280;44529;47.464;19.014;2022-12-10T04:29:22;98807.50;;;6.04;100.00
58761;BME280;44529;47.464;19.014;2022-12-10T04:32:27;98820.47;;;5.93;100.00
58761;BME280;44529;47.464;19.014;2022-12-10T04:35:30;98810.38;;;6.07;100.00
58761;BME280;44529;47.464;19.014;2022-12-10T04:38:34;98797.75;;;5.99;100.00
58761;BME280;44529;47.464;19.014;2022-12-10T04:41:36;98794.91;;;5.95;100.00
58761;BME280;44529;47.464;19.014;2022-12-10T04:44:38;98798.19;;;5.84;100.00
58761;BME280;44529;47.464;19.014;2022-12-10T04:47:41;98806.22;;;5.75;100.00
58761;BME280;44529;47.464;19.014;2022-12-10T04:50:43;98800.72;;;5.80;100.00
58761;BME280;44529;47.464;19.014;2022-12-10T04:53:47;98796.28;;;5.76;100.00
58761;BME280;44529;47.464;19.014;2022-12-10T04:56:49;98799.28;;;5.74;100.00
58761;BME280;44529;47.464;19.014;2022-12-10T04:59:51;98809.84;;;5.79;100.00
58761;BME280;44529;47.464;19.014;2022-12-10T05:02:53;98805.44;;;5.75;100.00
58761;BME280;44529;47.464;19.014;2022-12-10T05:06:04;98796.13;;;5.72;100.00
58761;BME280;44529;47.464;19.014;2022-12-10T05:09:07;98800.84;;;5.66;100.00
58761;BME280;44529;47.464;19.014;2022-12-10T05:12:09;98805.72;;;5.64;100.00
58761;BME280;44529;47.464;19.014;2022-12-10T05:15:14;98816.12;;;5.66;100.00
58761;BME280;44529;47.464;19.014;2022-12-10T05:18:16;98826.06;;;5.65;100.00
58761;BME280;44529;47.464;19.014;2022-12-10T05:21:19;98826.06;;;5.65;100.00
58761;BME280;44529;47.464;19.014;2022-12-10T05:24:22;98832.41;;;5.69;100.00
58761;BME280;44529;47.464;19.014;2022-12-10T05:27:25;98829.25;;;5.67;100.00
58761;BME280;44529;47.464;19.014;2022-12-10T05:30:34;98834.28;;;5.69;100.00
58761;BME280;44529;47.464;19.014;2022-12-10T05:33:36;98840.75;;;5.59;100.00
58761;BME280;44529;47.464;19.014;2022-12-10T05:36:39;98845.94;;;5.56;100.00
58761;BME280;44529;47.464;19.014;2022-12-10T05:39:42;98842.94;;;5.66;100.00
58761;BME280;44529;47.464;19.014;2022-12-10T05:42:45;98851.00;;;5.66;100.00
58761;BME280;44529;47.464;19.014;2022-12-10T05:45:47;98845.16;;;5.64;100.00
58761;BME280;44529;47.464;19.014;2022-12-10T05:48:50;98844.69;;;5.62;100.00
58761;BME280;44529;47.464;19.014;2022-12-10T05:51:55;98851.00;;;5.57;100.00
58761;BME280;44529;47.464;19.014;2022-12-10T05:54:58;98850.81;;;5.54;100.00
58761;BME280;44529;47.464;19.014;2022-12-10T05:58:01;98856.34;;;5.57;100.00
58761;BME280;44529;47.464;19.014;2022-12-10T06:01:12;98854.62;;;5.61;100.00
58761;BME280;44529;47.464;19.014;2022-12-10T06:04:15;98845.34;;;5.67;100.00
58761;BME280;44529;47.464;19.014;2022-12-10T06:07:17;98848.63;;;5.64;100.00
58761;BME280;44529;47.464;19.014;2022-12-10T06:10:19;98860.78;;;5.62;100.00
58761;BME280;44529;47.464;19.014;2022-12-10T06:13:21;98860.78;;;5.62;100.00
58761;BME280;44529;47.464;19.014;2022-12-10T06:16:26;98862.50;;;5.58;100.00
58761;BME280;44529;47.464;19.014;2022-12-10T06:19:28;98866.16;;;5.62;100.00
58761;BME280;44529;47.464;19.014;2022-12-10T06:22:31;98867.53;;;5.59;100.00
58761;BME280;44529;47.464;19.014;2022-12-10T06:25:37;98864.25;;;5.62;100.00
58761;BME280;44529;47.464;19.014;2022-12-10T06:28:40;98878.59;;;5.66;100.00
58761;BME280;44529;47.464;19.014;2022-12-10T06:31:43;98867.59;;;5.68;100.00
58761;BME280;44529;47.464;19.014;2022-12-10T06:34:46;98880.03;;;5.72;100.00
58761;BME280;44529;47.464;19.014;2022-12-10T06:37:49;98878.00;;;5.69;100.00
58761;BME280;44529;47.464;19.014;2022-12-10T06:40:52;98882.38;;;5.65;100.00
58761;BME280;44529;47.464;19.014;2022-12-10T06:43:54;98887.56;;;5.53;100.00
58761;BME280;44529;47.464;19.014;2022-12-10T06:47:00;98887.09;;;5.51;100.00
58761;BME280;44529;47.464;19.014;2022-12-10T06:50:03;98893.56;;;5.59;100.00
58761;BME280;44529;47.464;19.014;2022-12-10T06:53:05;98902.13;;;5.61;100.00
58761;BME280;44529;47.464;19.014;2022-12-10T06:56:12;98896.25;;;5.59;100.00
58761;BME280;44529;47.464;19.014;2022-12-10T06:59:15;98893.75;;;5.62;100.00
58761;BME280;44529;47.464;19.014;2022-12-10T07:02:17;98884.59;;;5.63;100.00
58761;BME280;44529;47.464;19.014;2022-12-10T07:05:21;98887.41;;;5.58;100.00
58761;BME280;44529;47.464;19.014;2022-12-10T07:08:24;98881.13;;;5.54;100.00
58761;BME280;44529;47.464;19.014;2022-12-10T07:11:28;98882.84;;;5.59;100.00
58761;BME280;44529;47.464;19.014;2022-12-10T07:14:32;98878.59;;;5.58;100.00
58761;BME280;44529;47.464;19.014;2022-12-10T07:17:34;98889.78;;;5.60;100.00
58761;BME280;44529;47.464;19.014;2022-12-10T07:20:36;98883.81;;;5.54;100.00
58761;BME280;44529;47.464;19.014;2022-12-10T07:23:39;98887.87;;;5.52;100.00
58761;BME280;44529;47.464;19.014;2022-12-10T07:26:42;98874.03;;;5.58;100.00
58761;BME280;44529;47.464;19.014;2022-12-10T07:29:45;98870.09;;;5.64;100.00
58761;BME280;44529;47.464;19.014;2022-12-10T07:32:48;98866.75;;;5.50;100.00
58761;BME280;44529;47.464;19.014;2022-12-10T07:35:51;98852.53;;;5.41;100.00
58761;BME280;44529;47.464;19.014;2022-12-10T07:38:54;98847.97;;;5.50;100.00
58761;BME280;44529;47.464;19.014;2022-12-10T07:41:57;98858.97;;;5.40;100.00
58761;BME280;44529;47.464;19.014;2022-12-10T07:45:03;98870.94;;;5.34;100.00
58761;BME280;44529;47.464;19.014;2022-12-10T07:48:07;98867.63;;;5.28;100.00
58761;BME280;44529;47.464;19.014;2022-12-10T07:51:10;98881.78;;;5.20;100.00
58761;BME280;44529;47.464;19.014;2022-12-10T07:54:14;98897.06;;;5.20;100.00
58761;BME280;44529;47.464;19.014;2022-12-10T07:57:17;98910.13;;;5.12;100.00
58761;BME280;44529;47.464;19.014;2022-12-10T08:00:20;98903.78;;;5.08;100.00
58761;BME280;44529;47.464;19.014;2022-12-10T08:03:22;98906.44;;;5.00;100.00
58761;BME280;44529;47.464;19.014;2022-12-10T08:06:27;98906.97;;;5.10;100.00
58761;BME280;44529;47.464;19.014;2022-12-10T08:09:31;98893.22;;;5.03;100.00
58761;BME280;44529;47.464;19.014;2022-12-10T08:12:33;98896.50;;;5.00;100.00
58761;BME280;44529;47.464;19.014;2022-12-10T08:15:35;98901.09;;;5.08;100.00
58761;BME280;44529;47.464;19.014;2022-12-10T08:18:37;98893.44;;;5.15;100.00
58761;BME280;44529;47.464;19.014;2022-12-10T08:21:40;98884.09;;;5.13;100.00
58761;BME280;44529;47.464;19.014;2022-12-10T08:24:42;98880.63;;;5.12;100.00
58761;BME280;44529;47.464;19.014;2022-12-10T08:27:45;98874.69;;;5.15;100.00
58761;BME280;44529;47.464;19.014;2022-12-10T08:30:47;98875.63;;;5.20;100.00
58761;BME280;44529;47.464;19.014;2022-12-10T08:33:50;98878.69;;;5.35;100.00
58761;BME280;44529;47.464;19.014;2022-12-10T08:36:53;98875.06;;;5.40;100.00
58761;BME280;44529;47.464;19.014;2022-12-10T08:39:55;98884.88;;;5.44;100.00
58761;BME280;44529;47.464;19.014;2022-12-10T08:42:58;98876.66;;;5.41;100.00
58761;BME280;44529;47.464;19.014;2022-12-10T08:46:01;98878.56;;;5.49;100.00
58761;BME280;44529;47.464;19.014;2022-12-10T08:49:04;98891.22;;;5.57;100.00
58761;BME280;44529;47.464;19.014;2022-12-10T08:52:07;98904.75;;;5.52;100.00
58761;BME280;44529;47.464;19.014;2022-12-10T08:55:09;98906.50;;;5.57;100.00
58761;BME280;44529;47.464;19.014;2022-12-10T08:58:12;98904.94;;;5.56;100.00
58761;BME280;44529;47.464;19.014;2022-12-10T09:01:16;98906.78;;;5.47;100.00
58761;BME280;44529;47.464;19.014;2022-12-10T09:04:19;98913.75;;;5.48;100.00
58761;BME280;44529;47.464;19.014;2022-12-10T09:07:21;98913.75;;;5.56;100.00
58761;BME280;44529;47.464;19.014;2022-12-10T09:10:24;98913.13;;;5.59;100.00
58761;BME280;44529;47.464;19.014;2022-12-10T09:13:26;98918.66;;;5.54;100.00
58761;BME280;44529;47.464;19.014;2022-12-10T09:16:31;98915.47;;;5.52;100.00
58761;BME280;44529;47.464;19.014;2022-12-10T09:19:34;98910.91;;;5.53;100.00
58761;BME280;44529;47.464;19.014;2022-12-10T09:22:37;98917.09;;;5.62;100.00
58761;BME280;44529;47.464;19.014;2022-12-10T09:25:39;98903.34;;;5.55;100.00
58761;BME280;44529;47.464;19.014;2022-12-10T09:28:42;98898.00;;;5.55;100.00
58761;BME280;44529;47.464;19.014;2022-12-10T09:31:45;98905.72;;;5.56;100.00
58761;BME280;44529;47.464;19.014;2022-12-10T09:34:52;98910.44;;;5.59;100.00
58761;BME280;44529;47.464;19.014;2022-12-10T09:37:55;98906.78;;;5.47;100.00
58761;BME280;44529;47.464;19.014;2022-12-10T09:44:15;98888.50;;;5.49;100.00
58761;BME280;44529;47.464;19.014;2022-12-10T09:47:24;98879.06;;;5.51;100.00
58761;BME280;44529;47.464;19.014;2022-12-10T09:51:36;98873.81;;;5.46;100.00
58761;BME280;44529;47.464;19.014;2022-12-10T09:57:49;98843.22;;;5.47;100.00
58761;BME280;44529;47.464;19.014;2022-12-10T10:01:01;98846.41;;;5.49;100.00
58761;BME280;44529;47.464;19.014;2022-12-10T10:04:05;98841.84;;;5.50;100.00
58761;BME280;44529;47.464;19.014;2022-12-10T10:07:23;98849.56;;;5.60;100.00
58761;BME280;44529;47.464;19.014;2022-12-10T10:10:39;98844.72;;;5.70;100.00
58761;BME280;44529;47.464;19.014;2022-12-10T10:13:55;98846.12;;;5.68;100.00
58761;BME280;44529;47.464;19.014;2022-12-10T10:17:07;98839.03;;;5.63;100.00
58761;BME280;44529;47.464;19.014;2022-12-10T10:20:13;98841.84;;;5.58;100.00
58761;BME280;44529;47.464;19.014;2022-12-10T10:23:16;98845.78;;;5.52;100.00
58761;BME280;44529;47.464;19.014;2022-12-10T10:26:19;98843.91;;;5.61;100.00
58761;BME280;44529;47.464;19.014;2022-12-10T10:29:21;98847.84;;;5.64;100.00
58761;BME280;44529;47.464;19.014;2022-12-10T10:35:44;98843.28;;;5.56;100.00
58761;BME280;44529;47.464;19.014;2022-12-10T10:38:48;98846.59;;;5.61;100.00
58761;BME280;44529;47.464;19.014;2022-12-10T10:41:56;98846.41;;;5.66;100.00
58761;BME280;44529;47.464;19.014;2022-12-10T10:44:59;98847.84;;;5.64;100.00
58761;BME280;44529;47.464;19.014;2022-12-10T10:54:32;98854.62;;;5.61;100.00
58761;BME280;44529;47.464;19.014;2022-12-10T10:57:36;98852.72;;;5.53;100.00
58761;BME280;44529;47.464;19.014;2022-12-10T11:00:39;98853.16;;;5.47;100.00
58761;BME280;44529;47.464;19.014;2022-12-10T11:03:48;98843.06;;;5.43;100.00
58761;BME280;44529;47.464;19.014;2022-12-10T11:06:53;98841.97;;;5.53;100.00
58761;BME280;44529;47.464;19.014;2022-12-10T11:09:56;98827.50;;;5.54;100.00
58761;BME280;44529;47.464;19.014;2022-12-10T11:13:05;98824.50;;;5.56;100.00
58761;BME280;44529;47.464;19.014;2022-12-10T11:16:17;98827.47;;;5.46;100.00
58761;BME280;44529;47.464;19.014;2022-12-10T11:19:23;98829.53;;;5.49;100.00
58761;BME280;44529;47.464;19.014;2022-12-10T11:22:28;98824.31;;;5.43;100.00
58761;BME280;44529;47.464;19.014;2022-12-10T11:25:57;98824.12;;;5.31;100.00
58761;BME280;44529;47.464;19.014;2022-12-10T11:36:02;98799.69;;;5.33;100.00
58761;BME280;44529;47.464;19.014;2022-12-10T11:55:17;98760.59;;;5.32;100.00
58761;BME280;44529;47.464;19.014;2022-12-10T12:05:39;98752.88;;;5.22;100.00
58761;BME280;44529;47.464;19.014;2022-12-10T12:08:51;98753.47;;;5.19;100.00
58761;BME280;44529;47.464;19.014;2022-12-10T12:12:16;98749.38;;;5.21;100.00
58761;BME280;44529;47.464;19.014;2022-12-10T12:15:33;98747.78;;;5.11;100.00
58761;BME280;44529;47.464;19.014;2022-12-10T12:22:23;98739.62;;;5.16;100.00
58761;BME280;44529;47.464;19.014;2022-12-10T12:25:40;98732.31;;;5.08;100.00
58761;BME280;44529;47.464;19.014;2022-12-10T12:28:48;98722.56;;;5.12;100.00
58761;BME280;44529;47.464;19.014;2022-12-10T12:32:03;98729.19;;;5.06;100.00
58761;BME280;44529;47.464;19.014;2022-12-10T12:35:27;98733.59;;;5.11;100.00
58761;BME280;44529;47.464;19.014;2022-12-10T12:38:48;98732.03;;;5.10;100.00
58761;BME280;44529;47.464;19.014;2022-12-10T12:42:26;98729.38;;;5.19;100.00
58761;BME280;44529;47.464;19.014;2022-12-10T12:45:45;98726.81;;;5.13;100.00
58761;BME280;44529;47.464;19.014;2022-12-10T12:48:56;98731.53;;;5.08;100.00
58761;BME280;44529;47.464;19.014;2022-12-10T12:59:15;98741.25;;;4.86;100.00
58761;BME280;44529;47.464;19.014;2022-12-10T13:05:43;98745.19;;;4.80;100.00
58761;BME280;44529;47.464;19.014;2022-12-10T13:12:27;98752.59;;;4.83;100.00
58761;BME280;44529;47.464;19.014;2022-12-10T13:15:41;98759.66;;;4.71;100.00
58761;BME280;44529;47.464;19.014;2022-12-10T13:18:43;98773.06;;;4.79;100.00
58761;BME280;44529;47.464;19.014;2022-12-10T13:25:54;98764.72;;;4.81;100.00
58761;BME280;44529;47.464;19.014;2022-12-10T13:29:25;98759.81;;;4.74;100.00
58761;BME280;44529;47.464;19.014;2022-12-10T13:39:45;98748.31;;;4.74;100.00
58761;BME280;44529;47.464;19.014;2022-12-10T13:42:58;98746.41;;;4.74;100.00
58761;BME280;44529;47.464;19.014;2022-12-10T13:50:04;98751.13;;;4.69;100.00
58761;BME280;44529;47.464;19.014;2022-12-10T13:53:24;98742.16;;;4.73;100.00
58761;BME280;44529;47.464;19.014;2022-12-10T14:00:19;98737.72;;;4.69;100.00
58761;BME280;44529;47.464;19.014;2022-12-10T14:06:57;98725.75;;;4.66;100.00
58761;BME280;44529;47.464;19.014;2022-12-10T14:10:01;98715.06;;;4.75;100.00
58761;BME280;44529;47.464;19.014;2022-12-10T14:13:04;98717.09;;;4.69;100.00
58761;BME280;44529;47.464;19.014;2022-12-10T14:16:11;98720.28;;;4.71;100.00
58761;BME280;44529;47.464;19.014;2022-12-10T14:19:16;98720.75;;;4.73;100.00
58761;BME280;44529;47.464;19.014;2022-12-10T14:22:44;98728.00;;;4.73;100.00
58761;BME280;44529;47.464;19.014;2022-12-10T14:25:47;98729.41;;;4.70;100.00
58761;BME280;44529;47.464;19.014;2022-12-10T14:28:55;98725.00;;;4.74;100.00
58761;BME280;44529;47.464;19.014;2022-12-10T14:31:58;98725.78;;;4.75;100.00
58761;BME280;44529;47.464;19.014;2022-12-10T14:35:02;98727.66;;;4.74;100.00
58761;BME280;44529;47.464;19.014;2022-12-10T14:38:05;98725.00;;;4.74;100.00
58761;BME280;44529;47.464;19.014;2022-12-10T14:41:10;98734.31;;;4.77;100.00
58761;BME280;44529;47.464;19.014;2022-12-10T14:44:20;98733.03;;;4.74;100.00
58761;BME280;44529;47.464;19.014;2022-12-10T14:47:23;98729.09;;;4.72;100.00
58761;BME280;44529;47.464;19.014;2022-12-10T14:50:28;98725.31;;;4.73;100.00
58761;BME280;44529;47.464;19.014;2022-12-10T14:53:31;98722.44;;;4.69;100.00
58761;BME280;44529;47.464;19.014;2022-12-10T14:56:35;98732.38;;;4.69;100.00
58761;BME280;44529;47.464;19.014;2022-12-10T15:00:03;98726.22;;;4.68;100.00
58761;BME280;44529;47.464;19.014;2022-12-10T15:03:10;98722.28;;;4.66;100.00
58761;BME280;44529;47.464;19.014;2022-12-10T15:06:16;98720.28;;;4.71;100.00
58761;BME280;44529;47.464;19.014;2022-12-10T15:09:25;98714.41;;;4.69;100.00
58761;BME280;44529;47.464;19.014;2022-12-10T15:12:41;98710.47;;;4.67;100.00
58761;BME280;44529;47.464;19.014;2022-12-10T15:15:51;98705.47;;;4.74;100.00
58761;BME280;44529;47.464;19.014;2022-12-10T15:18:55;98704.94;;;4.63;100.00
58761;BME280;44529;47.464;19.014;2022-12-10T15:22:15;98694.25;;;4.63;100.00
58761;BME280;44529;47.464;19.014;2022-12-10T15:25:21;98706.56;;;4.64;100.00
58761;BME280;44529;47.464;19.014;2022-12-10T15:28:29;98696.13;;;4.62;100.00
58761;BME280;44529;47.464;19.014;2022-12-10T15:31:32;98692.41;;;4.72;100.00
58761;BME280;44529;47.464;19.014;2022-12-10T15:34:39;98688.59;;;4.65;100.00
58761;BME280;44529;47.464;19.014;2022-12-10T15:37:43;98685.16;;;4.73;100.00
58761;BME280;44529;47.464;19.014;2022-12-10T15:40:48;98688.59;;;4.65;100.00
58761;BME280;44529;47.464;19.014;2022-12-10T15:44:00;98679.28;;;4.62;100.00
58761;BME280;44529;47.464;19.014;2022-12-10T15:47:14;98679.47;;;4.66;100.00
58761;BME280;44529;47.464;19.014;2022-12-10T15:50:18;98671.91;;;4.68;100.00
58761;BME280;44529;47.464;19.014;2022-12-10T15:53:29;98673.00;;;4.67;100.00
58761;BME280;44529;47.464;19.014;2022-12-10T15:56:37;98669.69;;;4.70;100.00
58761;BME280;44529;47.464;19.014;2022-12-10T15:59:39;98673.47;;;4.69;100.00
58761;BME280;44529;47.464;19.014;2022-12-10T16:06:00;98665.16;;;4.70;100.00
58761;BME280;44529;47.464;19.014;2022-12-10T16:09:02;98654.28;;;4.67;100.00
58761;BME280;44529;47.464;19.014;2022-12-10T16:12:04;98657.72;;;4.67;100.00
58761;BME280;44529;47.464;19.014;2022-12-10T16:15:11;98651.13;;;4.65;100.00
58761;BME280;44529;47.464;19.014;2022-12-10T16:18:17;98654.28;;;4.67;100.00
58761;BME280;44529;47.464;19.014;2022-12-10T16:21:20;98649.53;;;4.63;100.00
58761;BME280;44529;47.464;19.014;2022-12-10T16:24:23;98650.94;;;4.70;100.00
58761;BME280;44529;47.464;19.014;2022-12-10T16:27:25;98652.56;;;4.71;100.00
58761;BME280;44529;47.464;19.014;2022-12-10T16:30:37;98648.78;;;4.72;100.00
58761;BME280;44529;47.464;19.014;2022-12-10T16:33:48;98636.97;;;4.73;100.00
58761;BME280;44529;47.464;19.014;2022-12-10T16:36:54;98636.63;;;4.74;100.00
58761;BME280;44529;47.464;19.014;2022-12-10T16:39:56;98630.69;;;4.77;100.00
58761;BME280;44529;47.464;19.014;2022-12-10T16:43:02;98626.56;;;4.80;100.00
58761;BME280;44529;47.464;19.014;2022-12-10T16:46:04;98622.78;;;4.81;100.00
58761;BME280;44529;47.464;19.014;2022-12-10T16:49:07;98629.25;;;4.80;100.00
58761;BME280;44529;47.464;19.014;2022-12-10T16:52:14;98617.59;;;4.76;100.00
58761;BME280;44529;47.464;19.014;2022-12-10T16:55:25;98609.53;;;4.76;100.00
58761;BME280;44529;47.464;19.014;2022-12-10T16:58:31;98616.16;;;4.70;100.00
58761;BME280;44529;47.464;19.014;2022-12-10T17:01:34;98612.41;;;4.71;100.00
58761;BME280;44529;47.464;19.014;2022-12-10T17:04:37;98605.28;;;4.66;100.00
58761;BME280;44529;47.464;19.014;2022-12-10T17:07:39;98597.25;;;4.66;100.00
58761;BME280;44529;47.464;19.014;2022-12-10T17:10:41;98593.81;;;4.66;100.00
58761;BME280;44529;47.464;19.014;2022-12-10T17:14:03;98584.50;;;4.63;100.00
58761;BME280;44529;47.464;19.014;2022-12-10T17:17:08;98580.88;;;4.59;100.00
58761;BME280;44529;47.464;19.014;2022-12-10T17:20:16;98583.69;;;4.62;100.00
58761;BME280;44529;47.464;19.014;2022-12-10T17:23:20;98578.19;;;4.59;100.00
58761;BME280;44529;47.464;19.014;2022-12-10T17:26:27;98578.66;;;4.61;100.00
58761;BME280;44529;47.464;19.014;2022-12-10T17:29:42;98567.31;;;4.55;100.00
58761;BME280;44529;47.464;19.014;2022-12-10T17:32:46;98561.03;;;4.51;100.00
58761;BME280;44529;47.464;19.014;2022-12-10T17:35:51;98552.81;;;4.48;100.00
58761;BME280;44529;47.464;19.014;2022-12-10T17:38:54;98558.03;;;4.53;100.00
58761;BME280;44529;47.464;19.014;2022-12-10T17:41:57;98546.69;;;4.56;100.00
58761;BME280;44529;47.464;19.014;2022-12-10T17:45:00;98547.81;;;4.55;100.00
58761;BME280;44529;47.464;19.014;2022-12-10T17:48:03;98535.84;;;4.52;100.00
58761;BME280;44529;47.464;19.014;2022-12-10T17:51:09;98548.72;;;4.50;100.00
58761;BME280;44529;47.464;19.014;2022-12-10T17:54:13;98541.81;;;4.49;100.00
58761;BME280;44529;47.464;19.014;2022-12-10T17:57:24;98534.88;;;4.48;100.00
58761;BME280;44529;47.464;19.014;2022-12-10T18:00:31;98527.63;;;4.49;100.00
58761;BME280;44529;47.464;19.014;2022-12-10T18:03:38;98533.50;;;4.51;100.00